Time;durP1;ratioP1;P1;durP2;ratioP2;P2;SDS_P1;SDS_P2;PMS_P1;PMS_P2;Temp;Humidity;BMP_temperature;BMP_pressure;BME280_temperature;BME280_humidity;BME280_pressure;Samples;Min_cycle;Max_cycle;Signal;HPM_P1;HPM_P2
2023/05/22 00:00:07;;;;;;;3.60;2.75;;;;;;;21.04;52.53;99206.03;4932643;28;20038;-76
2023/05/22 00:02:37;;;;;;;4.00;3.00;;;;;;;21.04;52.54;99203.38;4932309;29;20028;-75
2023/05/22 00:05:05;;;;;;;4.10;2.83;;;;;;;21.02;52.39;99200.81;4932429;29;20490;-76
2023/05/22 00:07:31;;;;;;;4.15;2.90;;;;;;;21.03;52.56;99196.38;4932086;28;20036;-76
2023/05/22 00:09:56;;;;;;;4.38;2.90;;;;;;;21.00;52.61;99196.56;4932483;29;20031;-76
2023/05/22 00:12:21;;;;;;;5.15;3.10;;;;;;;21.00;52.68;99196.56;4932569;29;20501;-76
2023/05/22 00:14:47;;;;;;;4.05;2.92;;;;;;;20.99;52.71;99184.25;4932389;29;20028;-76
2023/05/22 00:17:13;;;;;;;4.68;2.95;;;;;;;20.99;52.71;99181.63;4932492;29;20028;-75
2023/05/22 00:19:41;;;;;;;3.70;2.72;;;;;;;20.98;52.52;99177.25;4932341;29;20107;-76
2023/05/22 00:22:08;;;;;;;4.30;2.90;;;;;;;20.97;52.67;99181.69;4932205;29;20028;-75
2023/05/22 00:24:33;;;;;;;3.70;2.70;;;;;;;20.98;52.57;99177.25;4932631;29;20031;-75
2023/05/22 00:26:59;;;;;;;4.38;2.92;;;;;;;20.98;52.71;99178.13;4932407;29;20027;-76
2023/05/22 00:29:24;;;;;;;3.65;2.90;;;;;;;20.97;52.54;99180.88;4932373;29;20525;-76
2023/05/22 00:31:50;;;;;;;4.53;2.97;;;;;;;20.96;52.61;99185.31;4932090;29;20040;-76
2023/05/22 00:34:15;;;;;;;3.85;2.72;;;;;;;20.98;52.58;99177.25;4931962;29;20062;-76
2023/05/22 00:36:40;;;;;;;4.53;3.13;;;;;;;20.99;52.49;99178.97;4931626;29;20016;-76
2023/05/22 00:39:06;;;;;;;4.75;3.05;;;;;;;21.00;52.41;99170.91;4932084;29;20155;-76
2023/05/22 00:41:34;;;;;;;4.50;3.10;;;;;;;21.01;52.49;99171.78;4931805;29;20647;-76
2023/05/22 00:44:01;;;;;;;5.15;3.05;;;;;;;21.00;52.37;99176.22;4931694;29;20023;-76
2023/05/22 00:46:27;;;;;;;4.75;3.10;;;;;;;21.03;52.49;99169.84;4931823;28;20469;-76
2023/05/22 00:48:52;;;;;;;4.75;2.60;;;;;;;21.02;52.49;99176.13;4931859;29;20023;-75
2023/05/22 00:51:21;;;;;;;3.72;2.75;;;;;;;21.01;52.69;99171.78;4931269;29;20027;-76
2023/05/22 00:53:49;;;;;;;4.40;3.05;;;;;;;21.01;52.55;99166.47;4932351;29;20038;-76
2023/05/22 00:56:15;;;;;;;4.32;3.13;;;;;;;21.03;52.38;99169.84;4935106;28;20040;-76
2023/05/22 00:58:40;;;;;;;3.85;2.92;;;;;;;21.03;52.29;99170.69;4917729;29;20512;-76
2023/05/22 01:01:08;;;;;;;4.18;3.08;;;;;;;21.05;52.34;99174.13;4917847;29;20040;-76
2023/05/22 01:03:43;;;;;;;4.38;2.80;;;;;;;21.03;52.42;99172.50;4935025;29;20812;-76
2023/05/22 01:06:13;;;;;;;5.38;3.00;;;;;;;21.03;52.47;99175.16;4934656;29;20623;-76
2023/05/22 01:08:40;;;;;;;4.15;2.97;;;;;;;21.02;52.63;99174.28;4934906;29;20059;-76
2023/05/22 01:11:16;;;;;;;4.18;2.90;;;;;;;21.02;52.48;99173.47;4935019;29;20042;-76
2023/05/22 01:13:57;;;;;;;3.75;2.60;;;;;;;21.03;52.43;99164.56;4934944;29;20031;-76
2023/05/22 01:16:31;;;;;;;4.28;3.00;;;;;;;21.03;52.56;99169.84;4934847;29;20454;-77
2023/05/22 01:19:25;;;;;;;4.45;2.90;;;;;;;21.01;52.36;99155.84;4934593;29;20042;-76
2023/05/22 01:22:20;;;;;;;4.20;2.97;;;;;;;21.00;52.50;99156.78;4934670;29;20040;-76
2023/05/22 01:24:50;;;;;;;3.75;2.70;;;;;;;21.00;52.41;99155.00;4917478;29;20489;-76
2023/05/22 01:27:48;;;;;;;4.10;3.03;;;;;;;21.00;52.49;99148.81;4934405;29;20024;-76
2023/05/22 01:30:38;;;;;;;4.55;3.20;;;;;;;21.02;52.27;99141.63;4934479;29;20042;-76
2023/05/22 01:33:05;;;;;;;4.25;2.80;;;;;;;21.00;52.24;99139.06;4934531;29;20032;-76
2023/05/22 01:35:33;;;;;;;4.25;3.10;;;;;;;21.02;52.22;99149.59;4934234;29;20047;-76
2023/05/22 01:38:00;;;;;;;4.20;3.30;;;;;;;20.99;52.59;99153.28;4934482;29;20035;-75
2023/05/22 01:40:27;;;;;;;2.92;2.42;;;;;;;21.02;52.36;99158.38;4934460;29;20031;-77
2023/05/22 01:42:52;;;;;;;5.15;2.95;;;;;;;21.03;52.19;99154.78;4934297;29;20032;-74
2023/05/22 01:45:20;;;;;;;4.13;3.08;;;;;;;21.00;52.44;99159.44;4917289;29;20028;-76
2023/05/22 01:47:45;;;;;;;3.78;2.90;;;;;;;20.99;52.42;99163.03;4934241;29;20035;-76
2023/05/22 01:50:11;;;;;;;4.15;3.00;;;;;;;20.97;52.31;99149.03;4933768;29;20020;-76
2023/05/22 01:52:58;;;;;;;4.15;2.95;;;;;;;20.98;52.38;99161.34;4934121;29;20402;-76
2023/05/22 01:55:33;;;;;;;3.65;2.92;;;;;;;20.96;52.28;99153.47;4934002;28;20062;-76
2023/05/22 01:58:08;;;;;;;4.43;3.00;;;;;;;20.94;52.42;99150.09;4934113;29;20122;-76
2023/05/22 02:00:36;;;;;;;4.05;3.10;;;;;;;20.97;52.50;99151.69;4934041;29;20350;-76
2023/05/22 02:03:10;;;;;;;4.50;3.20;;;;;;;20.99;52.46;99147.13;4933789;29;20032;-75
2023/05/22 02:05:38;;;;;;;3.60;2.60;;;;;;;20.98;52.46;99153.38;4933266;29;20035;-76
2023/05/22 02:08:04;;;;;;;3.63;2.75;;;;;;;20.98;52.36;99150.75;4933781;29;20505;-76
2023/05/22 02:10:30;;;;;;;3.20;2.50;;;;;;;20.98;52.32;99145.44;4934130;29;20089;-76
2023/05/22 02:12:56;;;;;;;3.65;2.78;;;;;;;20.97;52.47;99157.00;4933920;29;20046;-76
2023/05/22 02:15:21;;;;;;;4.07;2.75;;;;;;;20.94;52.46;99144.78;4933898;29;20043;-75
2023/05/22 02:17:48;;;;;;;3.90;2.88;;;;;;;20.98;52.24;99150.75;4933626;29;20119;-76
2023/05/22 02:20:15;;;;;;;4.18;2.88;;;;;;;20.95;52.54;99145.63;4933897;29;20497;-76
2023/05/22 02:22:45;;;;;;;4.13;2.50;;;;;;;20.95;52.47;99145.63;4933858;29;20116;-76
2023/05/22 02:25:15;;;;;;;3.90;2.53;;;;;;;20.95;52.35;99140.31;4933978;29;20031;-76
2023/05/22 02:27:45;;;;;;;4.15;2.53;;;;;;;20.96;52.47;99142.03;4933921;29;20127;-75
2023/05/22 02:30:12;;;;;;;4.30;2.95;;;;;;;20.93;52.41;99135.97;4933775;29;20023;-75
2023/05/22 02:32:39;;;;;;;4.28;2.90;;;;;;;20.93;52.61;99138.63;4933401;29;20482;-76
2023/05/22 02:35:05;;;;;;;3.30;2.60;;;;;;;20.91;52.53;99145.84;4933496;29;20390;-76
2023/05/22 02:37:30;;;;;;;3.70;2.65;;;;;;;20.92;52.47;99144.88;4933628;29;20028;-76
2023/05/22 02:39:56;;;;;;;3.72;2.75;;;;;;;20.96;52.44;99142.03;4933556;29;20032;-76
2023/05/22 02:42:22;;;;;;;4.10;2.90;;;;;;;20.93;52.35;99143.94;4933426;29;20043;-76
2023/05/22 02:44:48;;;;;;;4.50;2.72;;;;;;;20.91;52.38;99135.22;4933572;29;20036;-76
2023/05/22 02:47:13;;;;;;;4.30;3.35;;;;;;;20.92;52.23;99144.88;4933207;29;20657;-76
2023/05/22 02:49:39;;;;;;;3.72;2.65;;;;;;;20.93;52.50;99137.78;4933373;29;20023;-76
2023/05/22 02:52:05;;;;;;;3.83;2.80;;;;;;;20.93;52.50;99135.13;4933195;29;20478;-76
2023/05/22 02:54:30;;;;;;;4.13;2.60;;;;;;;20.93;52.52;99133.31;4933305;29;20030;-76
2023/05/22 02:56:55;;;;;;;4.43;3.05;;;;;;;20.92;52.34;99126.31;4932989;28;20051;-76
2023/05/22 02:59:21;;;;;;;3.22;2.65;;;;;;;20.92;52.56;99125.47;4933237;29;20024;-76
2023/05/22 03:01:47;;;;;;;3.42;2.72;;;;;;;20.93;52.46;99127.19;4932911;29;20032;-76
2023/05/22 03:04:12;;;;;;;3.80;2.78;;;;;;;20.93;52.41;99125.34;4933298;29;20151;-75
2023/05/22 03:06:38;;;;;;;3.80;2.75;;;;;;;20.93;52.46;99133.31;4933254;29;20509;-75
2023/05/22 03:09:04;;;;;;;3.90;2.75;;;;;;;20.92;52.51;99126.31;4933193;29;20613;-76
2023/05/22 03:11:30;;;;;;;3.72;2.65;;;;;;;20.92;52.42;99126.31;4933146;29;20393;-76
2023/05/22 03:13:56;;;;;;;3.70;2.80;;;;;;;20.92;52.44;99126.31;4933100;29;20080;-76
2023/05/22 03:16:21;;;;;;;5.43;2.72;;;;;;;20.92;52.54;99121.00;4932701;29;20060;-76
2023/05/22 03:18:49;;;;;;;3.60;2.75;;;;;;;20.95;52.40;99127.06;4933042;29;20402;-76
2023/05/22 03:21:14;;;;;;;4.05;2.92;;;;;;;20.93;52.32;99132.47;4933086;29;20109;-76
2023/05/22 03:23:40;;;;;;;4.18;2.60;;;;;;;20.92;52.37;99125.47;4933189;29;20553;-76
2023/05/22 03:26:05;;;;;;;4.00;2.80;;;;;;;20.93;52.38;99128.00;4933095;29;20038;-75
2023/05/22 03:28:30;;;;;;;3.20;2.33;;;;;;;20.92;52.49;99126.31;4933015;29;20055;-76
2023/05/22 03:30:56;;;;;;;4.78;2.80;;;;;;;20.92;52.41;99133.44;4932573;29;20036;-76
2023/05/22 03:33:21;;;;;;;3.90;2.75;;;;;;;20.91;52.21;99127.28;4933127;29;20038;-76
2023/05/22 03:35:47;;;;;;;4.18;2.85;;;;;;;20.93;52.21;99130.66;4932873;29;20039;-76
2023/05/22 03:38:12;;;;;;;4.10;3.10;;;;;;;20.91;52.41;99124.63;4932719;29;20038;-76
2023/05/22 03:40:38;;;;;;;3.67;2.75;;;;;;;20.93;52.20;99128.00;4932922;29;20497;-75
2023/05/22 03:43:03;;;;;;;4.35;3.00;;;;;;;20.92;52.21;99128.13;4932688;29;20581;-76
2023/05/22 03:45:28;;;;;;;3.70;2.53;;;;;;;20.91;52.46;99135.22;4932553;29;20028;-76
2023/05/22 03:47:54;;;;;;;3.55;2.67;;;;;;;20.91;52.24;99135.22;4932879;29;20023;-76
2023/05/22 03:50:19;;;;;;;3.97;2.50;;;;;;;20.89;52.22;99141.59;4932485;29;20031;-76
2023/05/22 03:52:45;;;;;;;3.88;2.85;;;;;;;20.91;52.17;99140.53;4932409;29;20389;-76
2023/05/22 03:55:10;;;;;;;3.88;2.75;;;;;;;20.90;52.38;99138.84;4932227;28;20044;-76
2023/05/22 03:57:36;;;;;;;4.22;3.25;;;;;;;20.90;52.30;99138.84;4932325;29;20027;-76
2023/05/22 04:00:08;;;;;;;4.40;3.17;;;;;;;20.90;52.37;99141.50;4932079;29;20093;-76
2023/05/22 04:02:37;;;;;;;4.10;2.70;;;;;;;20.87;52.50;99139.03;4932417;29;20038;-76
2023/05/22 04:05:07;;;;;;;3.55;2.50;;;;;;;20.89;52.41;99147.75;4932299;29;20110;-76
2023/05/22 04:07:32;;;;;;;3.15;2.50;;;;;;;20.90;52.31;99144.16;4932233;28;20044;-76
2023/05/22 04:09:58;;;;;;;3.75;2.53;;;;;;;20.90;52.16;99141.50;4932050;29;20059;-76
2023/05/22 04:12:23;;;;;;;3.60;2.80;;;;;;;20.86;52.34;99142.63;4932285;29;20050;-74
2023/05/22 04:14:48;;;;;;;3.80;2.80;;;;;;;20.87;52.44;99141.69;4931792;29;20066;-74
2023/05/22 04:17:14;;;;;;;3.80;2.70;;;;;;;20.86;52.51;99147.94;4932090;29;20478;-74
2023/05/22 04:19:39;;;;;;;3.33;2.33;;;;;;;20.86;52.21;99147.94;4932074;29;20038;-74
2023/05/22 04:22:05;;;;;;;3.92;2.78;;;;;;;20.86;52.32;99153.25;4932142;29;20051;-74
2023/05/22 04:24:31;;;;;;;3.53;2.70;;;;;;;20.86;52.34;99153.25;4932198;29;20082;-74
2023/05/22 04:26:59;;;;;;;3.90;2.72;;;;;;;20.86;52.24;99153.25;4930424;29;20043;-74
2023/05/22 04:29:25;;;;;;;3.40;2.50;;;;;;;20.84;52.32;99155.13;4932925;29;20016;-75
2023/05/22 04:31:53;;;;;;;3.40;2.55;;;;;;;20.85;52.38;99151.53;4935155;29;20126;-74
2023/05/22 04:34:19;;;;;;;6.63;2.47;;;;;;;20.85;52.36;99151.53;4935410;29;20069;-74
2023/05/22 04:36:45;;;;;;;4.82;2.78;;;;;;;20.85;52.35;99150.69;4935245;29;20023;-74
2023/05/22 04:39:12;;;;;;;3.67;2.88;;;;;;;20.83;52.22;99150.78;4935363;29;20032;-74
2023/05/22 04:41:39;;;;;;;4.35;2.63;;;;;;;20.85;52.18;99156.84;4935108;29;20085;-74
2023/05/22 04:44:07;;;;;;;3.50;2.55;;;;;;;20.86;52.29;99162.97;4924943;29;20094;-74
2023/05/22 04:46:35;;;;;;;3.63;2.63;;;;;;;20.85;52.44;99162.16;4916135;29;20024;-74
2023/05/22 04:49:02;;;;;;;3.85;2.47;;;;;;;20.85;52.47;99166.59;4916270;29;20032;-74
2023/05/22 04:51:28;;;;;;;3.28;2.40;;;;;;;20.85;52.32;99171.91;4932534;29;20107;-74
2023/05/22 04:53:54;;;;;;;4.25;3.00;;;;;;;20.84;52.42;99178.13;4935073;29;20481;-74
2023/05/22 04:56:21;;;;;;;4.85;3.28;;;;;;;20.84;52.32;99171.03;4934814;29;20055;-74
2023/05/22 04:58:48;;;;;;;13.38;6.72;;;;;;;20.81;52.35;99171.22;4934707;29;20405;-74
2023/05/22 05:01:15;;;;;;;59.72;31.58;;;;;;;20.82;52.62;99178.22;4934993;29;20433;-75
2023/05/22 05:03:41;;;;;;;57.25;23.42;;;;;;;20.79;52.61;99179.25;4934930;29;20034;-77
2023/05/22 05:06:08;;;;;;;309.20;192.40;;;;;;;20.78;52.94;99182.03;4918533;29;20031;-77
2023/05/22 05:08:34;;;;;;;223.10;131.18;;;;;;;20.74;53.06;99177.88;4934960;29;20024;-76
2023/05/22 05:10:59;;;;;;;137.20;73.55;;;;;;;20.73;53.30;99173.53;4934488;29;20520;-76
2023/05/22 05:13:25;;;;;;;62.78;31.48;;;;;;;20.67;53.05;99177.41;4934719;29;20099;-76
2023/05/22 05:15:50;;;;;;;19.58;9.68;;;;;;;20.64;53.28;99167.84;4934842;29;20098;-76
2023/05/22 05:18:16;;;;;;;9.27;4.93;;;;;;;20.64;53.00;99186.41;4934554;29;20478;-77
2023/05/22 05:20:41;;;;;;;5.45;3.65;;;;;;;20.62;53.22;99183.00;4934706;29;20036;-76
2023/05/22 05:23:09;;;;;;;7.18;4.07;;;;;;;20.62;53.17;99177.72;4917490;29;20560;-76
2023/05/22 05:25:37;;;;;;;6.28;3.22;;;;;;;20.63;53.15;99184.72;4934093;29;20024;-75
2023/05/22 05:28:09;;;;;;;6.38;3.28;;;;;;;20.61;53.30;99193.72;4917075;29;20055;-75
2023/05/22 05:30:35;;;;;;;6.60;3.75;;;;;;;20.61;53.12;99197.22;4934595;29;20129;-75
2023/05/22 05:33:00;;;;;;;8.27;3.55;;;;;;;20.61;53.17;99202.53;4934544;29;20027;-75
2023/05/22 05:35:26;;;;;;;4.10;3.15;;;;;;;20.62;53.04;99203.34;4934498;29;20058;-74
2023/05/22 05:37:51;;;;;;;5.30;3.40;;;;;;;20.58;53.23;99205.34;4917401;29;20040;-75
2023/05/22 05:40:17;;;;;;;6.15;3.67;;;;;;;20.58;53.33;99201.88;4933880;29;20123;-75
2023/05/22 05:42:42;;;;;;;5.82;3.40;;;;;;;20.58;53.21;99210.66;4934447;29;20016;-75
2023/05/22 05:45:08;;;;;;;5.68;3.55;;;;;;;20.57;53.34;99214.25;4934343;29;20516;-75
2023/05/22 05:47:33;;;;;;;5.18;3.70;;;;;;;20.58;53.43;99213.31;4934224;29;20489;-75
2023/05/22 05:49:59;;;;;;;5.32;3.47;;;;;;;20.57;53.40;99214.25;4934217;29;20058;-75
2023/05/22 05:52:26;;;;;;;5.47;3.47;;;;;;;20.56;53.28;99215.22;4934124;29;20026;-76
2023/05/22 05:54:51;;;;;;;5.07;3.20;;;;;;;20.56;53.40;99214.34;4933753;28;20031;-74
2023/05/22 05:57:17;;;;;;;5.80;3.72;;;;;;;20.57;53.30;99214.25;4933853;29;20035;-75
2023/05/22 05:59:42;;;;;;;5.50;3.70;;;;;;;20.56;53.14;99209.91;4916966;29;20031;-75
2023/05/22 06:02:09;;;;;;;6.28;3.63;;;;;;;20.55;53.59;99208.22;4917162;29;20055;-76
2023/05/22 06:04:34;;;;;;;5.70;3.72;;;;;;;20.57;53.47;99206.31;4933985;29;20035;-75
2023/05/22 06:07:00;;;;;;;4.70;3.53;;;;;;;20.57;53.58;99201.00;4930679;29;20062;-74
2023/05/22 06:09:26;;;;;;;6.28;3.97;;;;;;;20.57;53.26;99201.00;4914666;29;20035;-75
2023/05/22 06:11:51;;;;;;;5.38;3.78;;;;;;;20.58;53.16;99202.72;4914761;29;20032;-75
2023/05/22 06:14:17;;;;;;;5.18;3.95;;;;;;;20.58;53.14;99208.00;4913864;29;20036;-75
2023/05/22 06:16:42;;;;;;;4.97;3.97;;;;;;;20.59;53.37;99214.19;4914838;29;20027;-75
2023/05/22 06:19:07;;;;;;;5.30;3.75;;;;;;;20.58;53.42;99217.78;4915017;29;20024;-74
2023/05/22 06:21:33;;;;;;;6.00;3.85;;;;;;;20.57;53.25;99227.53;4914759;29;20031;-74
2023/05/22 06:23:58;;;;;;;5.65;3.67;;;;;;;20.58;53.37;99234.53;4914580;29;20414;-75
2023/05/22 06:26:24;;;;;;;5.65;3.60;;;;;;;20.59;53.30;99236.22;4914743;29;20544;-75
2023/05/22 06:28:50;;;;;;;5.30;3.42;;;;;;;20.59;53.44;99241.50;4914793;29;20087;-75
2023/05/22 06:31:16;;;;;;;5.93;3.95;;;;;;;20.59;53.26;99240.69;4914769;29;20025;-75
2023/05/22 06:33:41;;;;;;;5.75;3.72;;;;;;;20.60;53.43;99243.25;4914648;29;20028;-74
2023/05/22 06:36:07;;;;;;;5.55;3.90;;;;;;;20.63;53.44;99236.91;4914708;29;20032;-75
2023/05/22 06:38:33;;;;;;;4.88;3.60;;;;;;;20.64;53.49;99247.38;4914334;29;20048;-75
2023/05/22 06:40:58;;;;;;;5.35;3.80;;;;;;;20.64;53.32;99244.72;4914616;29;20032;-75
2023/05/22 06:43:24;;;;;;;5.35;3.72;;;;;;;20.65;53.23;99242.94;4914541;29;20036;-76
2023/05/22 06:45:49;;;;;;;5.40;3.88;;;;;;;20.64;53.53;99239.44;4914522;29;20028;-75
2023/05/22 06:48:15;;;;;;;5.70;4.18;;;;;;;20.66;53.37;99237.56;4914344;29;20462;-75
2023/05/22 06:50:41;;;;;;;6.20;3.80;;;;;;;20.63;53.41;99237.72;4924584;29;20047;-75
2023/05/22 06:53:06;;;;;;;4.95;3.65;;;;;;;20.65;53.26;99243.81;4932516;29;20036;-75
2023/05/22 06:55:32;;;;;;;5.40;4.00;;;;;;;20.67;53.38;99243.69;4933162;28;20044;-75
2023/05/22 06:57:57;;;;;;;4.80;3.28;;;;;;;20.69;53.14;99240.94;4933121;29;20059;-75
2023/05/22 07:00:23;;;;;;;5.20;3.65;;;;;;;20.70;53.06;99242.66;4933254;28;20035;-75
2023/05/22 07:02:48;;;;;;;4.95;3.67;;;;;;;20.70;53.16;99242.66;4933341;29;20447;-75
2023/05/22 07:05:14;;;;;;;5.20;3.53;;;;;;;20.72;53.13;99246.06;4933183;29;20031;-75
2023/05/22 07:07:39;;;;;;;5.18;3.53;;;;;;;20.71;53.17;99249.66;4933086;29;20038;-75
2023/05/22 07:10:05;;;;;;;5.30;3.60;;;;;;;20.72;53.20;99246.91;4933184;29;20030;-75
2023/05/22 07:12:31;;;;;;;7.13;3.42;;;;;;;20.69;53.02;99249.75;4933132;29;20058;-75
2023/05/22 07:14:58;;;;;;;5.22;3.47;;;;;;;20.69;53.12;99240.94;4932937;29;20443;-75
2023/05/22 07:17:24;;;;;;;5.30;3.13;;;;;;;20.70;53.00;99250.59;4932870;29;20490;-75
2023/05/22 07:19:49;;;;;;;4.97;3.22;;;;;;;20.68;53.07;99255.16;4932974;29;20111;-75
2023/05/22 07:22:15;;;;;;;5.13;3.67;;;;;;;20.68;53.19;99255.16;4932605;29;20114;-75
2023/05/22 07:24:40;;;;;;;5.45;3.53;;;;;;;20.65;53.28;99249.13;4933019;29;20032;-75
2023/05/22 07:27:06;;;;;;;5.00;3.35;;;;;;;20.65;53.09;99257.06;4932902;29;20550;-74
2023/05/22 07:29:31;;;;;;;5.13;3.38;;;;;;;20.68;53.36;99265.75;4932860;29;20533;-75
2023/05/22 07:31:57;;;;;;;5.10;3.85;;;;;;;20.64;53.10;99265.94;4932654;29;20038;-75
2023/05/22 07:34:22;;;;;;;5.03;3.13;;;;;;;20.66;53.24;99269.38;4932691;29;20718;-75
2023/05/22 07:36:48;;;;;;;5.68;3.85;;;;;;;20.66;53.09;99272.03;4932537;29;20055;-75
2023/05/22 07:39:14;;;;;;;5.15;3.35;;;;;;;20.63;53.24;99277.50;4932674;29;20430;-76
2023/05/22 07:41:40;;;;;;;5.15;3.33;;;;;;;20.68;53.25;99276.38;4932767;29;20043;-75
2023/05/22 07:44:05;;;;;;;5.38;3.33;;;;;;;20.66;53.27;99279.97;4932511;29;20027;-74
2023/05/22 07:46:31;;;;;;;4.80;3.83;;;;;;;20.64;53.20;99276.53;4932667;29;20107;-75
2023/05/22 07:48:56;;;;;;;5.38;3.65;;;;;;;20.65;53.21;99283.56;4932604;29;20032;-75
2023/05/22 07:51:22;;;;;;;5.75;3.30;;;;;;;20.66;53.15;99284.41;4931875;29;20031;-75
2023/05/22 07:53:47;;;;;;;6.22;3.33;;;;;;;20.68;53.23;99292.28;4932383;29;20035;-75
2023/05/22 07:56:13;;;;;;;5.22;3.55;;;;;;;20.70;53.29;99295.66;4932258;28;20056;-75
2023/05/22 07:58:38;;;;;;;4.95;3.53;;;;;;;20.70;53.04;99298.31;4932300;29;20469;-75
2023/05/22 08:01:05;;;;;;;4.28;3.28;;;;;;;20.71;53.03;99297.38;4932180;29;20073;-75
2023/05/22 08:03:31;;;;;;;4.82;3.75;;;;;;;20.70;53.19;99288.59;4931230;29;20035;-76
2023/05/22 08:05:56;;;;;;;5.57;3.95;;;;;;;20.70;53.10;99290.38;4932140;29;20023;-74
2023/05/22 08:08:22;;;;;;;5.30;3.75;;;;;;;20.69;53.16;99284.22;4932300;29;20429;-75
2023/05/22 08:10:47;;;;;;;4.40;3.53;;;;;;;20.69;53.32;99288.66;4931979;29;20126;-75
2023/05/22 08:13:14;;;;;;;4.53;3.65;;;;;;;20.72;53.09;99288.50;4932356;29;20024;-75
2023/05/22 08:15:40;;;;;;;5.78;3.55;;;;;;;20.73;53.03;99285.72;4932233;29;20031;-75
2023/05/22 08:18:05;;;;;;;5.30;3.55;;;;;;;20.72;53.15;99283.19;4932176;29;20042;-75
2023/05/22 08:20:31;;;;;;;8.10;3.50;;;;;;;20.72;53.05;99280.53;4931858;29;20441;-75
2023/05/22 08:22:56;;;;;;;5.07;3.72;;;;;;;20.72;53.01;99283.19;4932273;29;20440;-74
2023/05/22 08:25:22;;;;;;;5.22;3.72;;;;;;;20.73;53.10;99290.19;4915011;29;20040;-75
2023/05/22 08:27:47;;;;;;;4.68;3.25;;;;;;;20.73;53.06;99293.69;4932063;29;20074;-74
2023/05/22 08:30:13;;;;;;;5.10;4.03;;;;;;;20.72;53.30;99288.50;4932017;29;20493;-75
2023/05/22 08:32:38;;;;;;;5.05;3.38;;;;;;;20.74;53.19;99284.81;4931862;29;20078;-76
2023/05/22 08:35:04;;;;;;;5.30;3.60;;;;;;;20.73;53.04;99285.72;4931880;28;20020;-75
2023/05/22 08:37:29;;;;;;;5.30;3.85;;;;;;;20.75;53.06;99288.28;4931801;29;20398;-75
2023/05/22 08:39:55;;;;;;;4.90;3.97;;;;;;;20.77;53.01;99291.69;4931901;29;20024;-75
2023/05/22 08:42:20;;;;;;;5.75;3.53;;;;;;;20.76;52.98;99279.38;4932021;29;20117;-75
2023/05/22 08:44:47;;;;;;;4.90;3.83;;;;;;;20.76;53.25;99285.53;4931858;29;20449;-75
2023/05/22 08:47:14;;;;;;;5.10;3.67;;;;;;;20.78;53.08;99282.81;4932015;29;20040;-76
2023/05/22 08:49:39;;;;;;;4.90;3.88;;;;;;;20.77;52.98;99281.94;4931406;29;20028;-74
2023/05/22 08:52:20;;;;;;;5.20;3.83;;;;;;;20.78;53.02;99278.34;4931756;29;20115;-75
2023/05/22 08:54:51;;;;;;;6.55;4.07;;;;;;;20.80;52.69;99280.91;4931604;28;20028;-75
2023/05/22 08:57:18;;;;;;;4.80;3.65;;;;;;;20.79;53.02;99279.19;4931749;29;20037;-75
2023/05/22 08:59:44;;;;;;;5.63;3.83;;;;;;;20.80;53.02;99275.59;4914570;29;20170;-75
2023/05/22 09:02:11;;;;;;;5.38;3.83;;;;;;;20.81;53.05;99279.09;4931313;29;20062;-74
2023/05/22 09:04:39;;;;;;;5.15;3.95;;;;;;;20.82;52.97;99289.59;4931256;29;20038;-74
2023/05/22 09:07:05;;;;;;;5.00;3.70;;;;;;;20.81;53.02;99287.91;4931853;29;20493;-75
2023/05/22 09:09:39;;;;;;;4.80;3.60;;;;;;;20.81;53.26;99287.06;4931532;29;20042;-75
2023/05/22 09:12:09;;;;;;;6.05;4.00;;;;;;;20.80;53.29;99278.25;4931439;29;20028;-75
2023/05/22 09:14:41;;;;;;;5.25;3.95;;;;;;;20.82;52.98;99279.00;4931747;29;20086;-76
2023/05/22 09:17:10;;;;;;;5.45;3.95;;;;;;;20.84;52.93;99287.72;4934782;28;20127;-74
2023/05/22 09:19:35;;;;;;;4.70;3.72;;;;;;;20.83;53.01;99286.03;4934228;29;20486;-74
2023/05/22 09:22:05;;;;;;;5.13;4.28;;;;;;;20.84;53.00;99277.13;4934604;29;20028;-75
2023/05/22 09:24:36;;;;;;;5.85;4.25;;;;;;;20.84;53.10;99282.41;4934744;29;20023;-76
2023/05/22 09:27:03;;;;;;;5.78;3.70;;;;;;;20.86;53.34;99275.22;4934575;29;20110;-75
2023/05/22 09:29:29;;;;;;;5.28;4.22;;;;;;;20.86;52.93;99275.22;4934764;29;20032;-75
2023/05/22 09:31:55;;;;;;;5.93;3.90;;;;;;;20.86;53.15;99275.22;4934355;29;20551;-75
2023/05/22 09:34:21;;;;;;;5.60;3.83;;;;;;;20.87;52.98;99276.94;4934291;29;20065;-75
2023/05/22 09:36:48;;;;;;;5.88;3.75;;;;;;;20.87;53.08;99278.75;4934378;29;20035;-76
2023/05/22 09:39:14;;;;;;;4.45;3.53;;;;;;;20.87;53.10;99279.59;4934453;29;20051;-74
2023/05/22 09:41:39;;;;;;;6.47;4.18;;;;;;;20.89;53.11;99275.06;4934124;29;20063;-74
2023/05/22 09:44:12;;;;;;;5.20;4.13;;;;;;;20.88;53.03;99281.28;4934413;29;20035;-74
2023/05/22 09:46:44;;;;;;;6.03;3.60;;;;;;;20.87;53.08;99276.94;4934062;29;20141;-75
2023/05/22 09:49:09;;;;;;;4.72;3.80;;;;;;;20.88;53.06;99283.94;4934479;29;20032;-74
2023/05/22 09:51:39;;;;;;;5.00;3.80;;;;;;;20.88;53.19;99278.63;4934233;29;20460;-75
2023/05/22 09:54:08;;;;;;;5.45;4.03;;;;;;;20.86;53.15;99280.53;4934418;28;20032;-75
2023/05/22 09:56:35;;;;;;;5.50;3.75;;;;;;;20.88;53.11;99281.28;4933948;28;20094;-75
2023/05/22 09:59:02;;;;;;;4.85;3.83;;;;;;;20.88;53.13;99278.63;4934177;29;20043;-75
2023/05/22 10:01:27;;;;;;;4.90;3.63;;;;;;;20.89;53.25;99280.34;4933896;29;20415;-75
2023/05/22 10:03:55;;;;;;;4.68;3.70;;;;;;;20.89;53.15;99279.50;4934188;29;20028;-75
2023/05/22 10:06:23;;;;;;;6.03;4.15;;;;;;;20.90;53.29;99281.19;4934142;29;20054;-75
2023/05/22 10:09:01;;;;;;;4.63;3.55;;;;;;;20.89;53.26;99284.78;4934010;29;20031;-75
2023/05/22 10:11:29;;;;;;;5.18;3.97;;;;;;;20.89;53.17;99277.72;4933981;28;20028;-75
2023/05/22 10:13:57;;;;;;;4.63;3.70;;;;;;;20.89;53.12;99280.34;4934039;29;20110;-75
2023/05/22 10:16:24;;;;;;;4.78;3.80;;;;;;;20.89;53.19;99272.41;4933515;29;20040;-75
2023/05/22 10:18:51;;;;;;;5.07;3.55;;;;;;;20.89;53.12;99276.84;4933964;29;20059;-75
2023/05/22 10:21:17;;;;;;;6.05;4.40;;;;;;;20.90;53.25;99275.88;4933914;29;20447;-75
2023/05/22 10:23:43;;;;;;;5.18;4.10;;;;;;;20.89;53.30;99275.06;4933998;29;20058;-75
2023/05/22 10:26:09;;;;;;;4.70;3.60;;;;;;;20.89;53.50;99275.06;4933273;29;20039;-75
2023/05/22 10:28:41;;;;;;;5.10;3.88;;;;;;;20.89;53.38;99274.19;4933406;29;20023;-75
2023/05/22 10:31:33;;;;;;;5.15;3.65;;;;;;;20.87;53.42;99271.63;4933294;28;20039;-75
2023/05/22 10:34:04;;;;;;;5.85;3.80;;;;;;;20.88;53.24;99278.63;4991745;28;20046;-75
2023/05/22 10:36:32;;;;;;;4.97;3.58;;;;;;;20.88;53.42;99273.31;4992127;28;20038;-75
2023/05/22 10:39:15;;;;;;;4.50;3.30;;;;;;;20.89;53.31;99279.50;4909810;28;20495;-76
2023/05/22 10:41:40;;;;;;;5.07;3.60;;;;;;;20.87;53.26;99271.63;4992175;28;20039;-76
2023/05/22 10:44:06;;;;;;;4.72;4.00;;;;;;;20.89;53.52;99271.53;4992163;28;20046;-75
2023/05/22 10:46:34;;;;;;;4.13;3.20;;;;;;;20.89;53.51;99258.28;4975284;28;20069;-75
2023/05/22 10:49:00;;;;;;;5.53;4.10;;;;;;;20.90;53.62;99268.78;4991901;28;20038;-75
2023/05/22 10:51:25;;;;;;;5.05;3.80;;;;;;;20.89;53.47;99264.44;4991696;28;20089;-75
2023/05/22 10:53:59;;;;;;;4.70;3.40;;;;;;;20.89;53.58;99264.44;4991879;28;20443;-75
2023/05/22 10:56:34;;;;;;;4.35;3.40;;;;;;;20.89;53.38;99259.13;4991511;28;20054;-75
2023/05/22 10:59:03;;;;;;;5.65;4.07;;;;;;;20.91;53.50;99261.66;4991271;28;20074;-74
2023/05/22 11:01:29;;;;;;;5.43;3.90;;;;;;;20.91;53.48;99269.63;4991348;28;20523;-76
2023/05/22 11:03:56;;;;;;;5.72;3.70;;;;;;;20.91;53.49;99262.53;4991465;28;20121;-76
2023/05/22 11:06:36;;;;;;;5.22;3.72;;;;;;;20.90;53.57;99260.84;4991318;28;20037;-75
2023/05/22 11:09:28;;;;;;;5.13;3.70;;;;;;;20.91;53.57;99264.31;4991483;28;20100;-76
2023/05/22 11:12:13;;;;;;;4.50;3.55;;;;;;;20.91;53.64;99262.53;4916894;28;20048;-75
2023/05/22 11:14:38;;;;;;;5.25;3.60;;;;;;;20.91;53.60;99257.22;4896817;29;20059;-75
2023/05/22 11:17:05;;;;;;;4.50;3.78;;;;;;;20.92;53.50;99252.78;4914000;29;20032;-75
2023/05/22 11:19:30;;;;;;;5.22;3.78;;;;;;;20.93;53.73;99255.31;4914077;29;20501;-75
2023/05/22 11:22:00;;;;;;;5.13;4.07;;;;;;;20.95;53.62;99262.31;4913770;29;20024;-74
2023/05/22 11:24:32;;;;;;;4.80;3.90;;;;;;;20.95;53.61;99257.03;4914014;29;20029;-75
2023/05/22 11:27:03;;;;;;;5.57;4.18;;;;;;;20.96;53.68;99259.56;4913911;29;20025;-75
2023/05/22 11:29:29;;;;;;;5.65;3.80;;;;;;;20.95;53.61;99259.66;4913429;29;20090;-74
2023/05/22 11:31:57;;;;;;;5.40;3.95;;;;;;;20.96;53.65;99261.41;4913732;29;20557;-75